createdAt,value
2023-02-06T10:36:14.906Z,64.20
2023-02-06T10:39:06.007Z,63.70
2023-02-06T10:41:58.184Z,63.70
2023-02-06T10:44:34.797Z,63.30
2023-02-06T10:47:02.239Z,62.80
2023-02-06T10:49:43.489Z,63.20
2023-02-06T10:52:27.581Z,63.10
2023-02-06T10:54:58.661Z,62.90
2023-02-06T10:57:28.591Z,63.00
2023-02-06T11:00:02.341Z,62.80
2023-02-06T11:02:41.584Z,64.40
2023-02-06T11:05:21.612Z,73.50
2023-02-06T11:08:36.008Z,75.90
2023-02-06T11:11:30.391Z,68.10
2023-02-06T11:14:28.465Z,64.50
2023-02-06T11:16:59.533Z,64.20
2023-02-06T11:19:35.852Z,64.00
2023-02-06T11:22:13.174Z,63.70
2023-02-06T11:24:59.783Z,64.50
2023-02-06T11:27:27.488Z,64.10
2023-02-06T11:29:54.930Z,64.10
2023-02-06T11:32:30.404Z,64.70
2023-02-06T11:35:00.933Z,64.10
2023-02-06T11:37:40.790Z,64.10
2023-02-06T11:40:20.055Z,64.10
2023-02-06T11:42:49.297Z,64.10
2023-02-06T11:45:29.764Z,64.30
2023-02-06T11:47:57.477Z,63.50
2023-02-06T11:50:24.463Z,63.70
2023-02-06T11:52:59.181Z,63.10
2023-02-06T11:55:29.989Z,63.20
2023-02-06T11:58:13.693Z,62.90
2023-02-06T12:00:52.583Z,63.20
2023-02-06T12:03:30.865Z,63.20
2023-02-06T12:06:05.558Z,62.30
2023-02-06T12:08:54.176Z,63.00
2023-02-06T12:11:34.609Z,63.50
2023-02-06T12:14:09.294Z,63.30
2023-02-06T12:16:39.630Z,63.20
2023-02-06T12:19:12.254Z,63.00
2023-02-06T12:21:48.222Z,63.20
2023-02-06T12:24:39.703Z,63.30
2023-02-06T12:27:15.314Z,63.10
2023-02-06T12:29:56.311Z,63.50
2023-02-06T12:32:38.770Z,63.30
2023-02-06T12:35:31.049Z,62.90
2023-02-06T12:38:05.027Z,63.10
2023-02-06T12:40:48.337Z,63.40
2023-02-06T12:43:17.069Z,62.90
2023-02-06T12:45:50.530Z,62.20
2023-02-06T12:48:36.141Z,62.00
2023-02-06T12:51:06.067Z,62.10
2023-02-06T12:53:44.399Z,72.80
2023-02-06T12:56:37.705Z,62.80
2023-02-06T12:59:10.372Z,62.20
2023-02-06T13:01:52.097Z,61.60
2023-02-06T13:04:23.786Z,61.20
2023-02-06T13:07:07.935Z,61.80
2023-02-06T13:09:41.722Z,61.60
2023-02-06T13:12:24.040Z,61.30
2023-02-06T13:15:07.370Z,60.70
2023-02-06T13:17:37.145Z,61.60
2023-02-06T13:20:10.212Z,61.80
2023-02-06T13:23:12.686Z,61.80
2023-02-06T13:25:39.547Z,62.10
2023-02-06T13:28:21.762Z,62.20
2023-02-06T13:30:50.813Z,61.90
2023-02-06T13:33:25.335Z,62.00
2023-02-06T13:35:58.110Z,61.10
2023-02-06T13:38:34.111Z,62.70
2023-02-06T13:41:15.722Z,62.00
2023-02-06T13:43:42.512Z,62.10
2023-02-06T13:46:14.330Z,61.90
2023-02-06T13:49:05.487Z,61.50
2023-02-06T13:51:35.408Z,63.00
2023-02-06T13:54:25.289Z,61.80
2023-02-06T13:57:24.503Z,61.10
2023-02-06T13:59:56.670Z,62.30
2023-02-06T14:02:34.994Z,62.10
2023-02-06T14:05:05.181Z,61.70
2023-02-06T14:07:48.154Z,62.80
2023-02-06T14:10:42.094Z,62.00
2023-02-06T14:13:15.115Z,62.80
2023-02-06T14:16:01.933Z,63.10
2023-02-06T14:18:57.890Z,63.20
2023-02-06T14:21:37.532Z,62.40
2023-02-06T14:24:23.119Z,61.90
2023-02-06T14:27:05.090Z,63.70
2023-02-06T14:30:01.027Z,61.30
2023-02-06T14:32:47.744Z,61.80
2023-02-06T14:35:26.678Z,62.00
2023-02-06T14:37:59.791Z,62.10
2023-02-06T14:40:34.583Z,62.20
2023-02-06T14:43:13.870Z,72.50
2023-02-06T14:45:44.022Z,68.00
2023-02-06T14:48:32.565Z,67.70
2023-02-06T14:50:59.628Z,67.50
2023-02-06T14:53:36.432Z,68.10
2023-02-06T14:56:13.396Z,65.40
2023-02-06T14:58:41.943Z,67.90
2023-02-06T15:01:17.898Z,70.00
2023-02-06T15:03:47.296Z,82.90
2023-02-06T15:06:33.324Z,65.90
2023-02-06T15:09:01.103Z,61.10
2023-02-06T15:11:32.705Z,62.00
2023-02-06T15:14:06.517Z,64.70
2023-02-06T15:16:46.585Z,67.00
2023-02-06T15:19:17.526Z,62.90
2023-02-06T15:21:44.602Z,63.50
2023-02-06T15:24:37.452Z,63.40
2023-02-06T15:27:35.296Z,64.10
2023-02-06T15:30:12.798Z,64.80
2023-02-06T15:32:40.578Z,64.40
2023-02-06T15:35:22.686Z,63.50
2023-02-06T15:37:50.763Z,63.80
2023-02-06T15:40:26.669Z,64.20
2023-02-06T15:42:57.015Z,65.40
2023-02-06T15:45:39.094Z,64.60
2023-02-06T15:48:27.947Z,64.80
2023-02-06T15:51:20.757Z,64.90
2023-02-06T15:53:49.548Z,64.50
2023-02-06T15:56:33.265Z,65.20
2023-02-06T15:59:06.175Z,65.20
2023-02-06T16:01:38.654Z,66.00
2023-02-06T16:04:24.171Z,66.20
2023-02-06T16:07:12.888Z,66.20
2023-02-06T16:09:49.611Z,65.70
2023-02-06T16:12:17.789Z,65.90
2023-02-06T16:14:57.106Z,65.90
2023-02-06T16:17:41.205Z,66.20
2023-02-06T16:20:42.367Z,71.70
2023-02-06T16:23:18.315Z,66.90
2023-02-06T16:25:46.798Z,68.00
2023-02-06T16:28:27.183Z,70.90
2023-02-06T16:30:58.504Z,66.70
2023-02-06T16:33:39.556Z,66.00
2023-02-06T16:36:06.968Z,65.30
2023-02-06T16:38:33.931Z,65.00
2023-02-06T16:41:00.837Z,65.40
2023-02-06T16:43:29.843Z,65.80
2023-02-06T16:46:02.100Z,65.40
2023-02-06T16:48:29.300Z,65.70
2023-02-06T16:50:56.276Z,66.20
2023-02-06T16:53:25.349Z,66.70
2023-02-06T16:55:52.536Z,66.40
2023-02-06T16:58:23.029Z,66.20
2023-02-06T17:00:50.587Z,66.30
2023-02-06T17:03:18.133Z,65.70
2023-02-06T17:05:48.096Z,66.10
2023-02-06T17:08:23.148Z,65.90
2023-02-06T17:10:53.390Z,66.10
2023-02-06T17:13:23.414Z,66.00
2023-02-06T17:15:54.470Z,65.80
2023-02-06T17:18:22.566Z,65.80
2023-02-06T17:20:52.749Z,66.20
2023-02-06T17:23:20.329Z,65.90
2023-02-06T17:25:47.256Z,65.70
2023-02-06T17:28:17.412Z,65.90
2023-02-06T17:30:45.628Z,67.10
2023-02-06T17:33:12.804Z,80.50
2023-02-06T17:35:39.781Z,83.00
2023-02-06T17:38:08.677Z,79.90
2023-02-06T17:40:40.773Z,80.60
2023-02-06T17:43:08.093Z,76.60
2023-02-06T17:45:40.473Z,84.50
2023-02-06T17:48:07.803Z,71.50
2023-02-06T17:50:37.576Z,81.90
2023-02-06T17:53:06.106Z,73.30
2023-02-06T17:55:35.408Z,79.00
2023-02-06T17:58:03.020Z,63.60
2023-02-06T18:00:30.266Z,63.30
2023-02-06T18:02:59.334Z,65.40
2023-02-06T18:05:26.798Z,64.70
2023-02-06T18:07:53.888Z,65.70
2023-02-06T18:10:22.954Z,66.20
2023-02-06T18:12:52.613Z,67.00
2023-02-06T18:15:19.883Z,66.70
2023-02-06T18:17:46.854Z,66.40
2023-02-06T18:20:15.325Z,66.70
2023-02-06T18:22:42.560Z,66.90
2023-02-06T18:25:12.456Z,67.00
2023-02-06T18:27:41.564Z,67.50
2023-02-06T18:30:09.751Z,68.10
2023-02-06T18:32:38.118Z,68.20
2023-02-06T18:35:06.066Z,68.00
2023-02-06T18:37:33.105Z,68.50
2023-02-06T18:40:03.120Z,68.30
2023-02-06T18:42:48.716Z,68.40
2023-02-06T18:45:15.606Z,68.80
2023-02-06T18:47:42.522Z,68.60
2023-02-06T18:50:11.513Z,68.50
2023-02-06T18:52:39.461Z,68.20
2023-02-06T18:55:08.228Z,68.10
2023-02-06T18:57:36.402Z,68.40
2023-02-06T19:00:05.870Z,68.80
2023-02-06T19:02:33.217Z,68.60
2023-02-06T19:05:00.210Z,68.50
2023-02-06T19:07:27.796Z,68.80
2023-02-06T19:09:59.318Z,68.90
2023-02-06T19:12:28.586Z,69.30
2023-02-06T19:15:02.533Z,69.80
2023-02-06T19:17:29.388Z,69.30
2023-02-06T19:19:56.610Z,69.30
2023-02-06T19:22:23.814Z,69.80
2023-02-06T19:24:54.044Z,69.40
2023-02-06T19:27:26.144Z,69.00
2023-02-06T19:29:53.125Z,68.40
2023-02-06T19:32:20.063Z,68.90
2023-02-06T19:34:47.042Z,69.60
2023-02-06T19:37:14.125Z,69.60
2023-02-06T19:39:43.145Z,70.00
2023-02-06T19:42:10.862Z,70.10
2023-02-06T19:44:37.963Z,70.20
2023-02-06T19:47:04.843Z,69.70
2023-02-06T19:49:32.067Z,69.80
2023-02-06T19:51:59.376Z,70.00
2023-02-06T19:54:26.675Z,69.60
2023-02-06T19:56:54.129Z,69.80
2023-02-06T19:59:24.056Z,70.00
2023-02-06T20:01:54.034Z,69.90
2023-02-06T20:04:23.942Z,70.00
2023-02-06T20:06:51.350Z,70.20
2023-02-06T20:09:21.699Z,69.90
2023-02-06T20:11:49.536Z,84.90
2023-02-06T20:14:17.541Z,84.80
2023-02-06T20:16:45.879Z,70.70
2023-02-06T20:19:18.928Z,69.90
2023-02-06T20:21:49.027Z,69.50
2023-02-06T20:24:20.737Z,69.70
2023-02-06T20:26:48.716Z,69.80
2023-02-06T20:29:36.945Z,70.20
2023-02-06T20:32:05.530Z,70.50
2023-02-06T20:34:32.975Z,70.60
2023-02-06T20:37:00.135Z,70.70
2023-02-06T20:39:27.716Z,71.10
2023-02-06T20:41:54.840Z,71.40
2023-02-06T20:44:21.980Z,71.40
2023-02-06T20:46:48.973Z,71.40
2023-02-06T20:49:25.361Z,71.30
2023-02-06T20:51:52.603Z,71.10
2023-02-06T20:54:21.015Z,71.10
2023-02-06T20:56:48.005Z,71.10
2023-02-06T20:59:19.586Z,70.90
2023-02-06T21:01:46.876Z,70.60
2023-02-06T21:04:15.365Z,70.80
2023-02-06T21:06:43.186Z,70.90
2023-02-06T21:09:11.076Z,70.40
2023-02-06T21:11:41.813Z,70.20
2023-02-06T21:14:09.062Z,70.50
2023-02-06T21:16:37.905Z,70.40
2023-02-06T21:19:07.193Z,70.30
2023-02-06T21:21:38.008Z,70.10
2023-02-06T21:24:05.287Z,71.00
2023-02-06T21:26:32.797Z,70.10
2023-02-06T21:29:00.200Z,69.70
2023-02-06T21:31:37.965Z,70.10
2023-02-06T21:34:20.472Z,69.90
2023-02-06T21:36:48.808Z,70.00
2023-02-06T21:39:21.619Z,70.10
2023-02-06T21:41:51.763Z,69.70
2023-02-06T21:44:18.748Z,69.60
2023-02-06T21:46:45.744Z,69.80
2023-02-06T21:49:13.251Z,70.10
2023-02-06T21:51:40.257Z,70.20
